aviador You're here:

FMCH Decoded Metar

MORONI in COMOROS ISLANDS
Report Time2017-10-22 17:00:00
UTC Time2017-10-22 17:19:24
Flight Rules vfr VFR
Wind050° at 02 kt
W.Decomp.*RWY 02: 1.6 kt HW 1.2 kt RCW
W.Rank050° ranks 31
Current wind is below 050° avg. (4.1)
Visibility9999 m
Phenomena:N/A
Clouds:Few 020 Hf
Expected CloudBase > 800 ft AGL from Temp-Dew spread
CeilingNone
Temp27°C (ISA +12)
Dew Point25°C (89% RH)
Heat Index30.6°C
QNH1013 hPa
Density Alt1,916 ft
Elevation95 ft
Report Wrong Elevation
Raw Report
FMCH 221700Z 05002KT 9999 FEW020 27/25 Q1013 NOSIG=

Extra information for FMCH:More info

Metar Taf Metar & Taf Last 4 Metars F.Rules Stats Wind Profile Meteogram Temp Stats Airport Information Weather charts Add Link Nearby VenuesMetar ALERT Operation Metar Decoded Social comments